sensor_id;sensor_type;location;lat;lon;timestamp;P1;durP1;ratioP1;P2;durP2;ratioP2
8297;SDS011;4187;42.778;23.242;2023-07-13T00:00:22;6.30;;;5.10;;
8297;SDS011;4187;42.778;23.242;2023-07-13T00:02:49;7.85;;;5.30;;
8297;SDS011;4187;42.778;23.242;2023-07-13T00:05:18;6.60;;;5.15;;
8297;SDS011;4187;42.778;23.242;2023-07-13T00:07:45;5.75;;;5.10;;
8297;SDS011;4187;42.778;23.242;2023-07-13T00:10:14;7.00;;;5.28;;
8297;SDS011;4187;42.778;23.242;2023-07-13T00:12:42;8.70;;;5.43;;
8297;SDS011;4187;42.778;23.242;2023-07-13T00:15:12;6.78;;;5.30;;
8297;SDS011;4187;42.778;23.242;2023-07-13T00:17:41;6.32;;;5.22;;
8297;SDS011;4187;42.778;23.242;2023-07-13T00:20:09;6.45;;;5.32;;
8297;SDS011;4187;42.778;23.242;2023-07-13T00:22:37;6.45;;;5.00;;
8297;SDS011;4187;42.778;23.242;2023-07-13T00:25:05;5.95;;;5.30;;
8297;SDS011;4187;42.778;23.242;2023-07-13T00:27:33;6.40;;;5.20;;
8297;SDS011;4187;42.778;23.242;2023-07-13T00:30:00;7.03;;;5.32;;
8297;SDS011;4187;42.778;23.242;2023-07-13T00:32:28;8.30;;;5.47;;
8297;SDS011;4187;42.778;23.242;2023-07-13T00:34:55;7.35;;;4.93;;
8297;SDS011;4187;42.778;23.242;2023-07-13T00:37:24;6.70;;;5.53;;
8297;SDS011;4187;42.778;23.242;2023-07-13T00:39:51;7.43;;;5.30;;
8297;SDS011;4187;42.778;23.242;2023-07-13T00:42:18;9.40;;;6.13;;
8297;SDS011;4187;42.778;23.242;2023-07-13T00:47:32;7.18;;;5.32;;
8297;SDS011;4187;42.778;23.242;2023-07-13T00:49:59;6.95;;;5.55;;
8297;SDS011;4187;42.778;23.242;2023-07-13T00:52:27;8.32;;;5.45;;
8297;SDS011;4187;42.778;23.242;2023-07-13T00:54:54;9.82;;;6.13;;
8297;SDS011;4187;42.778;23.242;2023-07-13T00:57:22;6.57;;;5.63;;
8297;SDS011;4187;42.778;23.242;2023-07-13T00:59:50;6.38;;;5.78;;
8297;SDS011;4187;42.778;23.242;2023-07-13T01:02:21;8.27;;;6.03;;
8297;SDS011;4187;42.778;23.242;2023-07-13T01:04:48;6.30;;;5.70;;
8297;SDS011;4187;42.778;23.242;2023-07-13T01:07:15;8.27;;;5.32;;
8297;SDS011;4187;42.778;23.242;2023-07-13T01:09:42;8.35;;;5.70;;
8297;SDS011;4187;42.778;23.242;2023-07-13T01:12:10;6.13;;;5.57;;
8297;SDS011;4187;42.778;23.242;2023-07-13T01:14:39;5.55;;;5.05;;
8297;SDS011;4187;42.778;23.242;2023-07-13T01:17:08;9.52;;;5.93;;
8297;SDS011;4187;42.778;23.242;2023-07-13T01:19:38;6.85;;;5.63;;
8297;SDS011;4187;42.778;23.242;2023-07-13T01:22:08;7.43;;;5.68;;
8297;SDS011;4187;42.778;23.242;2023-07-13T01:24:38;7.72;;;6.20;;
8297;SDS011;4187;42.778;23.242;2023-07-13T01:27:08;8.43;;;6.15;;
8297;SDS011;4187;42.778;23.242;2023-07-13T01:29:37;7.32;;;5.47;;
8297;SDS011;4187;42.778;23.242;2023-07-13T01:32:07;7.07;;;5.55;;
8297;SDS011;4187;42.778;23.242;2023-07-13T01:34:35;6.28;;;5.65;;
8297;SDS011;4187;42.778;23.242;2023-07-13T01:37:03;6.40;;;5.55;;
8297;SDS011;4187;42.778;23.242;2023-07-13T01:39:32;6.57;;;5.88;;
8297;SDS011;4187;42.778;23.242;2023-07-13T01:41:59;6.07;;;5.47;;
8297;SDS011;4187;42.778;23.242;2023-07-13T01:44:26;7.15;;;5.20;;
8297;SDS011;4187;42.778;23.242;2023-07-13T01:46:53;6.97;;;6.05;;
8297;SDS011;4187;42.778;23.242;2023-07-13T01:49:19;7.28;;;5.70;;
8297;SDS011;4187;42.778;23.242;2023-07-13T01:51:46;9.18;;;5.80;;
8297;SDS011;4187;42.778;23.242;2023-07-13T01:54:13;7.72;;;5.78;;
8297;SDS011;4187;42.778;23.242;2023-07-13T01:56:41;7.40;;;6.18;;
8297;SDS011;4187;42.778;23.242;2023-07-13T01:59:08;5.85;;;5.35;;
8297;SDS011;4187;42.778;23.242;2023-07-13T02:01:36;7.75;;;5.65;;
8297;SDS011;4187;42.778;23.242;2023-07-13T02:04:03;6.97;;;5.85;;
8297;SDS011;4187;42.778;23.242;2023-07-13T02:06:30;6.18;;;5.28;;
8297;SDS011;4187;42.778;23.242;2023-07-13T02:08:57;6.47;;;5.65;;
8297;SDS011;4187;42.778;23.242;2023-07-13T02:11:24;6.45;;;5.85;;
8297;SDS011;4187;42.778;23.242;2023-07-13T02:13:58;8.68;;;5.78;;
8297;SDS011;4187;42.778;23.242;2023-07-13T02:16:25;7.63;;;5.40;;
8297;SDS011;4187;42.778;23.242;2023-07-13T02:18:52;6.65;;;6.03;;
8297;SDS011;4187;42.778;23.242;2023-07-13T02:21:20;6.32;;;5.65;;
8297;SDS011;4187;42.778;23.242;2023-07-13T02:23:48;7.72;;;5.97;;
8297;SDS011;4187;42.778;23.242;2023-07-13T02:26:15;9.23;;;6.55;;
8297;SDS011;4187;42.778;23.242;2023-07-13T02:28:42;6.63;;;5.90;;
8297;SDS011;4187;42.778;23.242;2023-07-13T02:31:12;7.32;;;6.00;;
8297;SDS011;4187;42.778;23.242;2023-07-13T02:33:40;7.45;;;5.78;;
8297;SDS011;4187;42.778;23.242;2023-07-13T02:36:07;6.38;;;5.32;;
8297;SDS011;4187;42.778;23.242;2023-07-13T02:38:35;6.50;;;5.90;;
8297;SDS011;4187;42.778;23.242;2023-07-13T02:41:02;7.00;;;5.80;;
8297;SDS011;4187;42.778;23.242;2023-07-13T02:43:29;9.55;;;5.95;;
8297;SDS011;4187;42.778;23.242;2023-07-13T02:45:56;7.68;;;6.07;;
8297;SDS011;4187;42.778;23.242;2023-07-13T02:48:30;6.43;;;5.72;;
8297;SDS011;4187;42.778;23.242;2023-07-13T02:50:57;7.72;;;6.63;;
8297;SDS011;4187;42.778;23.242;2023-07-13T02:53:24;9.43;;;7.13;;
8297;SDS011;4187;42.778;23.242;2023-07-13T02:55:51;11.60;;;7.35;;
8297;SDS011;4187;42.778;23.242;2023-07-13T02:58:17;6.97;;;6.28;;
8297;SDS011;4187;42.778;23.242;2023-07-13T03:00:45;7.15;;;6.32;;
8297;SDS011;4187;42.778;23.242;2023-07-13T03:03:13;8.93;;;6.68;;
8297;SDS011;4187;42.778;23.242;2023-07-13T03:05:43;7.32;;;6.00;;
8297;SDS011;4187;42.778;23.242;2023-07-13T03:08:15;7.90;;;6.60;;
8297;SDS011;4187;42.778;23.242;2023-07-13T03:10:43;10.35;;;6.75;;
8297;SDS011;4187;42.778;23.242;2023-07-13T03:13:10;9.93;;;6.72;;
8297;SDS011;4187;42.778;23.242;2023-07-13T03:15:36;8.65;;;6.93;;
8297;SDS011;4187;42.778;23.242;2023-07-13T03:18:03;12.13;;;7.25;;
8297;SDS011;4187;42.778;23.242;2023-07-13T03:20:32;10.35;;;7.25;;
8297;SDS011;4187;42.778;23.242;2023-07-13T03:23:00;9.00;;;6.78;;
8297;SDS011;4187;42.778;23.242;2023-07-13T03:25:28;6.97;;;6.10;;
8297;SDS011;4187;42.778;23.242;2023-07-13T03:27:54;7.47;;;6.35;;
8297;SDS011;4187;42.778;23.242;2023-07-13T03:30:21;7.82;;;7.03;;
8297;SDS011;4187;42.778;23.242;2023-07-13T03:32:48;8.07;;;6.72;;
8297;SDS011;4187;42.778;23.242;2023-07-13T03:35:15;7.70;;;6.72;;
8297;SDS011;4187;42.778;23.242;2023-07-13T03:37:42;8.95;;;6.30;;
8297;SDS011;4187;42.778;23.242;2023-07-13T03:40:11;8.30;;;6.13;;
8297;SDS011;4187;42.778;23.242;2023-07-13T03:42:39;7.40;;;6.60;;
8297;SDS011;4187;42.778;23.242;2023-07-13T03:45:06;9.70;;;6.50;;
8297;SDS011;4187;42.778;23.242;2023-07-13T03:47:34;8.55;;;6.60;;
8297;SDS011;4187;42.778;23.242;2023-07-13T03:50:00;7.90;;;7.10;;
8297;SDS011;4187;42.778;23.242;2023-07-13T03:52:28;7.93;;;6.80;;
8297;SDS011;4187;42.778;23.242;2023-07-13T03:54:55;9.43;;;6.15;;
8297;SDS011;4187;42.778;23.242;2023-07-13T03:57:23;7.68;;;6.75;;
8297;SDS011;4187;42.778;23.242;2023-07-13T03:59:50;11.60;;;8.02;;
8297;SDS011;4187;42.778;23.242;2023-07-13T04:02:17;10.70;;;7.22;;
8297;SDS011;4187;42.778;23.242;2023-07-13T04:04:44;9.57;;;7.82;;
8297;SDS011;4187;42.778;23.242;2023-07-13T04:07:11;12.38;;;8.15;;
8297;SDS011;4187;42.778;23.242;2023-07-13T04:09:37;8.63;;;7.35;;
8297;SDS011;4187;42.778;23.242;2023-07-13T04:12:05;11.52;;;7.20;;
8297;SDS011;4187;42.778;23.242;2023-07-13T04:14:34;13.60;;;8.05;;
8297;SDS011;4187;42.778;23.242;2023-07-13T04:17:01;8.40;;;7.40;;
8297;SDS011;4187;42.778;23.242;2023-07-13T04:19:28;14.32;;;8.55;;
8297;SDS011;4187;42.778;23.242;2023-07-13T04:21:54;11.45;;;7.57;;
8297;SDS011;4187;42.778;23.242;2023-07-13T04:24:21;12.30;;;7.68;;
8297;SDS011;4187;42.778;23.242;2023-07-13T04:26:48;13.20;;;8.57;;
8297;SDS011;4187;42.778;23.242;2023-07-13T04:29:15;10.20;;;8.07;;
8297;SDS011;4187;42.778;23.242;2023-07-13T04:31:43;9.73;;;8.73;;
8297;SDS011;4187;42.778;23.242;2023-07-13T04:34:10;15.27;;;9.93;;
8297;SDS011;4187;42.778;23.242;2023-07-13T04:36:36;12.18;;;10.90;;
8297;SDS011;4187;42.778;23.242;2023-07-13T04:39:03;12.63;;;10.60;;
8297;SDS011;4187;42.778;23.242;2023-07-13T04:41:30;11.73;;;10.48;;
8297;SDS011;4187;42.778;23.242;2023-07-13T04:43:57;12.35;;;10.07;;
8297;SDS011;4187;42.778;23.242;2023-07-13T04:46:24;14.75;;;10.48;;
8297;SDS011;4187;42.778;23.242;2023-07-13T04:48:52;11.73;;;10.52;;
8297;SDS011;4187;42.778;23.242;2023-07-13T04:51:19;9.63;;;8.50;;
8297;SDS011;4187;42.778;23.242;2023-07-13T04:53:46;10.55;;;8.63;;
8297;SDS011;4187;42.778;23.242;2023-07-13T04:56:13;11.20;;;9.48;;
8297;SDS011;4187;42.778;23.242;2023-07-13T04:58:39;12.60;;;8.52;;
8297;SDS011;4187;42.778;23.242;2023-07-13T05:01:06;11.80;;;8.85;;
8297;SDS011;4187;42.778;23.242;2023-07-13T05:03:34;16.42;;;9.05;;
8297;SDS011;4187;42.778;23.242;2023-07-13T05:06:03;10.82;;;8.80;;
8297;SDS011;4187;42.778;23.242;2023-07-13T05:08:32;11.65;;;9.00;;
8297;SDS011;4187;42.778;23.242;2023-07-13T05:10:59;15.65;;;8.73;;
8297;SDS011;4187;42.778;23.242;2023-07-13T05:13:26;10.05;;;8.32;;
8297;SDS011;4187;42.778;23.242;2023-07-13T05:15:56;11.70;;;8.88;;
8297;SDS011;4187;42.778;23.242;2023-07-13T05:18:24;13.30;;;9.07;;
8297;SDS011;4187;42.778;23.242;2023-07-13T05:20:56;13.02;;;8.48;;
8297;SDS011;4187;42.778;23.242;2023-07-13T05:23:25;11.52;;;8.50;;
8297;SDS011;4187;42.778;23.242;2023-07-13T05:25:53;11.02;;;8.80;;
8297;SDS011;4187;42.778;23.242;2023-07-13T05:28:20;13.23;;;8.18;;
8297;SDS011;4187;42.778;23.242;2023-07-13T05:30:47;11.10;;;9.07;;
8297;SDS011;4187;42.778;23.242;2023-07-13T05:33:14;10.93;;;9.18;;
8297;SDS011;4187;42.778;23.242;2023-07-13T05:35:40;11.48;;;8.80;;
8297;SDS011;4187;42.778;23.242;2023-07-13T05:38:07;11.25;;;9.27;;
8297;SDS011;4187;42.778;23.242;2023-07-13T05:40:35;10.93;;;8.77;;
8297;SDS011;4187;42.778;23.242;2023-07-13T05:43:02;12.65;;;9.27;;
8297;SDS011;4187;42.778;23.242;2023-07-13T05:45:29;14.40;;;8.93;;
8297;SDS011;4187;42.778;23.242;2023-07-13T05:47:56;12.30;;;8.88;;
8297;SDS011;4187;42.778;23.242;2023-07-13T05:50:23;9.80;;;8.82;;
8297;SDS011;4187;42.778;23.242;2023-07-13T05:52:49;13.35;;;9.85;;
8297;SDS011;4187;42.778;23.242;2023-07-13T05:55:17;12.30;;;9.13;;
8297;SDS011;4187;42.778;23.242;2023-07-13T05:57:45;13.18;;;9.68;;
8297;SDS011;4187;42.778;23.242;2023-07-13T06:00:12;12.55;;;9.80;;
8297;SDS011;4187;42.778;23.242;2023-07-13T06:02:40;10.80;;;9.75;;
8297;SDS011;4187;42.778;23.242;2023-07-13T06:05:08;13.73;;;10.23;;
8297;SDS011;4187;42.778;23.242;2023-07-13T06:07:35;13.90;;;9.98;;
8297;SDS011;4187;42.778;23.242;2023-07-13T06:10:02;8.93;;;7.90;;
8297;SDS011;4187;42.778;23.242;2023-07-13T06:12:29;10.90;;;8.27;;
8297;SDS011;4187;42.778;23.242;2023-07-13T06:14:57;13.05;;;9.57;;
8297;SDS011;4187;42.778;23.242;2023-07-13T06:17:24;16.10;;;8.38;;
8297;SDS011;4187;42.778;23.242;2023-07-13T06:19:51;15.65;;;8.88;;
8297;SDS011;4187;42.778;23.242;2023-07-13T06:22:18;10.75;;;8.88;;
8297;SDS011;4187;42.778;23.242;2023-07-13T06:24:44;12.40;;;9.60;;
8297;SDS011;4187;42.778;23.242;2023-07-13T06:27:11;13.98;;;10.43;;
8297;SDS011;4187;42.778;23.242;2023-07-13T06:29:38;11.68;;;7.72;;
8297;SDS011;4187;42.778;23.242;2023-07-13T06:32:08;13.38;;;8.95;;
8297;SDS011;4187;42.778;23.242;2023-07-13T06:34:35;9.48;;;8.23;;
8297;SDS011;4187;42.778;23.242;2023-07-13T06:37:01;11.23;;;8.15;;
8297;SDS011;4187;42.778;23.242;2023-07-13T06:39:28;13.40;;;7.97;;
8297;SDS011;4187;42.778;23.242;2023-07-13T06:41:55;12.40;;;7.50;;
8297;SDS011;4187;42.778;23.242;2023-07-13T06:44:22;12.20;;;8.55;;
8297;SDS011;4187;42.778;23.242;2023-07-13T06:46:49;13.07;;;8.10;;
8297;SDS011;4187;42.778;23.242;2023-07-13T06:49:17;12.45;;;8.68;;
8297;SDS011;4187;42.778;23.242;2023-07-13T06:51:44;14.10;;;9.10;;
8297;SDS011;4187;42.778;23.242;2023-07-13T06:54:10;11.20;;;8.63;;
8297;SDS011;4187;42.778;23.242;2023-07-13T06:56:38;13.48;;;8.68;;
8297;SDS011;4187;42.778;23.242;2023-07-13T06:59:04;11.75;;;7.90;;
8297;SDS011;4187;42.778;23.242;2023-07-13T07:01:31;9.70;;;8.77;;
8297;SDS011;4187;42.778;23.242;2023-07-13T07:03:58;14.23;;;8.60;;
8297;SDS011;4187;42.778;23.242;2023-07-13T07:06:26;15.98;;;8.40;;
8297;SDS011;4187;42.778;23.242;2023-07-13T07:08:53;15.00;;;9.07;;
8297;SDS011;4187;42.778;23.242;2023-07-13T07:11:20;16.92;;;8.75;;
8297;SDS011;4187;42.778;23.242;2023-07-13T07:13:49;9.82;;;8.85;;
8297;SDS011;4187;42.778;23.242;2023-07-13T07:16:17;16.38;;;9.00;;
8297;SDS011;4187;42.778;23.242;2023-07-13T07:18:45;12.30;;;8.52;;
8297;SDS011;4187;42.778;23.242;2023-07-13T07:21:13;10.18;;;8.15;;
8297;SDS011;4187;42.778;23.242;2023-07-13T07:23:41;17.92;;;9.63;;
8297;SDS011;4187;42.778;23.242;2023-07-13T07:26:08;16.92;;;8.90;;
8297;SDS011;4187;42.778;23.242;2023-07-13T07:28:35;11.10;;;9.05;;
8297;SDS011;4187;42.778;23.242;2023-07-13T07:31:02;14.38;;;9.27;;
8297;SDS011;4187;42.778;23.242;2023-07-13T07:33:29;12.25;;;9.27;;
8297;SDS011;4187;42.778;23.242;2023-07-13T07:35:55;11.65;;;9.13;;
8297;SDS011;4187;42.778;23.242;2023-07-13T07:38:22;11.50;;;9.20;;
8297;SDS011;4187;42.778;23.242;2023-07-13T07:40:50;13.55;;;10.13;;
8297;SDS011;4187;42.778;23.242;2023-07-13T07:43:17;12.85;;;10.77;;
8297;SDS011;4187;42.778;23.242;2023-07-13T07:45:44;14.57;;;9.40;;
8297;SDS011;4187;42.778;23.242;2023-07-13T07:48:12;13.25;;;9.63;;
8297;SDS011;4187;42.778;23.242;2023-07-13T07:50:38;11.27;;;10.00;;
8297;SDS011;4187;42.778;23.242;2023-07-13T07:53:05;12.95;;;9.88;;
8297;SDS011;4187;42.778;23.242;2023-07-13T07:55:35;14.27;;;10.90;;
8297;SDS011;4187;42.778;23.242;2023-07-13T07:58:04;17.30;;;10.10;;
8297;SDS011;4187;42.778;23.242;2023-07-13T08:00:32;11.82;;;10.63;;
8297;SDS011;4187;42.778;23.242;2023-07-13T08:03:00;12.00;;;9.93;;
8297;SDS011;4187;42.778;23.242;2023-07-13T08:05:28;21.23;;;10.20;;
8297;SDS011;4187;42.778;23.242;2023-07-13T08:07:54;13.63;;;11.00;;
8297;SDS011;4187;42.778;23.242;2023-07-13T08:10:21;11.05;;;9.63;;
8297;SDS011;4187;42.778;23.242;2023-07-13T08:12:48;14.52;;;9.35;;
8297;SDS011;4187;42.778;23.242;2023-07-13T08:15:19;11.55;;;9.60;;
8297;SDS011;4187;42.778;23.242;2023-07-13T08:17:47;13.30;;;9.43;;
8297;SDS011;4187;42.778;23.242;2023-07-13T08:20:14;13.68;;;9.65;;
8297;SDS011;4187;42.778;23.242;2023-07-13T08:22:42;13.82;;;9.45;;
8297;SDS011;4187;42.778;23.242;2023-07-13T08:25:08;11.57;;;9.55;;
8297;SDS011;4187;42.778;23.242;2023-07-13T08:27:35;13.35;;;9.45;;
8297;SDS011;4187;42.778;23.242;2023-07-13T08:30:02;10.70;;;9.70;;
8297;SDS011;4187;42.778;23.242;2023-07-13T08:32:32;14.25;;;10.02;;
8297;SDS011;4187;42.778;23.242;2023-07-13T08:34:59;10.00;;;8.98;;
8297;SDS011;4187;42.778;23.242;2023-07-13T08:37:25;14.23;;;8.90;;
8297;SDS011;4187;42.778;23.242;2023-07-13T08:39:52;12.20;;;9.32;;
8297;SDS011;4187;42.778;23.242;2023-07-13T08:42:22;10.68;;;9.27;;
8297;SDS011;4187;42.778;23.242;2023-07-13T08:45:04;9.68;;;8.60;;
8297;SDS011;4187;42.778;23.242;2023-07-13T08:47:41;13.52;;;9.48;;
8297;SDS011;4187;42.778;23.242;2023-07-13T08:50:14;10.65;;;8.52;;
8297;SDS011;4187;42.778;23.242;2023-07-13T08:52:46;11.95;;;9.05;;
8297;SDS011;4187;42.778;23.242;2023-07-13T08:55:15;13.32;;;9.57;;
8297;SDS011;4187;42.778;23.242;2023-07-13T08:57:46;13.38;;;9.48;;
8297;SDS011;4187;42.778;23.242;2023-07-13T09:00:18;10.77;;;8.40;;
8297;SDS011;4187;42.778;23.242;2023-07-13T09:02:48;12.40;;;9.43;;
8297;SDS011;4187;42.778;23.242;2023-07-13T09:05:24;13.10;;;8.52;;
8297;SDS011;4187;42.778;23.242;2023-07-13T09:08:05;10.57;;;7.63;;
8297;SDS011;4187;42.778;23.242;2023-07-13T09:10:48;11.52;;;7.95;;
8297;SDS011;4187;42.778;23.242;2023-07-13T09:13:20;14.75;;;7.90;;
8297;SDS011;4187;42.778;23.242;2023-07-13T09:15:54;10.65;;;7.47;;
8297;SDS011;4187;42.778;23.242;2023-07-13T09:18:23;11.98;;;8.15;;
8297;SDS011;4187;42.778;23.242;2023-07-13T09:20:55;10.45;;;6.88;;
8297;SDS011;4187;42.778;23.242;2023-07-13T09:23:27;8.77;;;7.78;;
8297;SDS011;4187;42.778;23.242;2023-07-13T09:25:58;9.95;;;7.10;;
8297;SDS011;4187;42.778;23.242;2023-07-13T09:28:29;8.23;;;7.18;;
8297;SDS011;4187;42.778;23.242;2023-07-13T09:31:01;9.82;;;7.55;;
8297;SDS011;4187;42.778;23.242;2023-07-13T09:33:33;10.48;;;6.43;;
8297;SDS011;4187;42.778;23.242;2023-07-13T09:36:00;6.75;;;6.05;;
8297;SDS011;4187;42.778;23.242;2023-07-13T09:38:27;6.78;;;4.80;;
8297;SDS011;4187;42.778;23.242;2023-07-13T09:41:01;11.70;;;5.25;;
8297;SDS011;4187;42.778;23.242;2023-07-13T09:43:43;6.88;;;4.30;;
8297;SDS011;4187;42.778;23.242;2023-07-13T09:46:26;7.22;;;5.53;;
8297;SDS011;4187;42.778;23.242;2023-07-13T09:48:55;12.05;;;5.43;;
8297;SDS011;4187;42.778;23.242;2023-07-13T09:51:22;6.72;;;5.10;;
8297;SDS011;4187;42.778;23.242;2023-07-13T09:53:49;9.45;;;5.20;;
8297;SDS011;4187;42.778;23.242;2023-07-13T09:56:19;8.68;;;4.90;;
8297;SDS011;4187;42.778;23.242;2023-07-13T09:58:47;6.03;;;4.70;;
8297;SDS011;4187;42.778;23.242;2023-07-13T10:01:14;8.25;;;5.10;;
8297;SDS011;4187;42.778;23.242;2023-07-13T10:03:51;11.32;;;4.95;;
8297;SDS011;4187;42.778;23.242;2023-07-13T10:06:20;8.15;;;4.85;;
8297;SDS011;4187;42.778;23.242;2023-07-13T10:08:49;10.07;;;5.18;;
8297;SDS011;4187;42.778;23.242;2023-07-13T10:11:18;12.52;;;5.15;;
8297;SDS011;4187;42.778;23.242;2023-07-13T10:13:50;6.93;;;5.40;;
8297;SDS011;4187;42.778;23.242;2023-07-13T10:16:19;9.45;;;5.13;;
8297;SDS011;4187;42.778;23.242;2023-07-13T10:18:46;5.70;;;5.05;;
8297;SDS011;4187;42.778;23.242;2023-07-13T10:21:17;7.63;;;5.07;;
8297;SDS011;4187;42.778;23.242;2023-07-13T10:23:48;8.55;;;4.93;;
8297;SDS011;4187;42.778;23.242;2023-07-13T10:26:21;7.57;;;4.80;;
8297;SDS011;4187;42.778;23.242;2023-07-13T10:28:52;7.28;;;4.93;;
8297;SDS011;4187;42.778;23.242;2023-07-13T10:31:22;11.10;;;5.35;;
8297;SDS011;4187;42.778;23.242;2023-07-13T10:33:50;8.88;;;5.40;;
8297;SDS011;4187;42.778;23.242;2023-07-13T10:36:19;7.10;;;4.55;;
8297;SDS011;4187;42.778;23.242;2023-07-13T10:38:54;8.93;;;4.97;;
8297;SDS011;4187;42.778;23.242;2023-07-13T10:41:24;8.32;;;4.90;;
8297;SDS011;4187;42.778;23.242;2023-07-13T10:43:55;5.13;;;4.63;;
8297;SDS011;4187;42.778;23.242;2023-07-13T10:46:25;7.53;;;4.88;;
8297;SDS011;4187;42.778;23.242;2023-07-13T10:48:54;5.70;;;4.60;;
8297;SDS011;4187;42.778;23.242;2023-07-13T10:51:29;10.63;;;4.80;;
8297;SDS011;4187;42.778;23.242;2023-07-13T10:56:52;11.10;;;5.22;;
8297;SDS011;4187;42.778;23.242;2023-07-13T10:59:23;5.93;;;4.90;;
8297;SDS011;4187;42.778;23.242;2023-07-13T11:01:55;5.25;;;4.53;;
8297;SDS011;4187;42.778;23.242;2023-07-13T11:04:24;6.38;;;4.50;;
8297;SDS011;4187;42.778;23.242;2023-07-13T11:06:55;7.20;;;4.72;;
8297;SDS011;4187;42.778;23.242;2023-07-13T11:09:35;6.65;;;4.57;;
8297;SDS011;4187;42.778;23.242;2023-07-13T11:12:08;6.32;;;4.47;;
8297;SDS011;4187;42.778;23.242;2023-07-13T11:15:03;9.30;;;4.60;;
8297;SDS011;4187;42.778;23.242;2023-07-13T11:17:37;10.60;;;4.88;;
8297;SDS011;4187;42.778;23.242;2023-07-13T11:20:23;6.38;;;4.95;;
8297;SDS011;4187;42.778;23.242;2023-07-13T11:25:56;5.68;;;5.07;;
8297;SDS011;4187;42.778;23.242;2023-07-13T11:28:25;8.85;;;4.95;;
8297;SDS011;4187;42.778;23.242;2023-07-13T11:31:01;5.85;;;4.13;;
8297;SDS011;4187;42.778;23.242;2023-07-13T11:33:45;6.93;;;4.70;;
8297;SDS011;4187;42.778;23.242;2023-07-13T11:36:29;9.80;;;5.60;;
8297;SDS011;4187;42.778;23.242;2023-07-13T11:39:03;6.65;;;4.38;;
8297;SDS011;4187;42.778;23.242;2023-07-13T11:41:43;10.30;;;5.70;;
8297;SDS011;4187;42.778;23.242;2023-07-13T11:44:12;5.40;;;4.65;;
8297;SDS011;4187;42.778;23.242;2023-07-13T11:46:44;6.05;;;5.28;;
8297;SDS011;4187;42.778;23.242;2023-07-13T11:49:14;8.30;;;4.38;;
8297;SDS011;4187;42.778;23.242;2023-07-13T11:51:42;8.18;;;4.80;;
8297;SDS011;4187;42.778;23.242;2023-07-13T11:54:15;6.63;;;4.70;;
8297;SDS011;4187;42.778;23.242;2023-07-13T11:56:50;5.18;;;4.30;;
8297;SDS011;4187;42.778;23.242;2023-07-13T11:59:18;6.93;;;4.85;;
8297;SDS011;4187;42.778;23.242;2023-07-13T12:01:49;8.80;;;5.25;;
8297;SDS011;4187;42.778;23.242;2023-07-13T12:04:21;9.35;;;4.90;;
8297;SDS011;4187;42.778;23.242;2023-07-13T12:06:57;7.13;;;5.30;;
8297;SDS011;4187;42.778;23.242;2023-07-13T12:09:29;10.02;;;6.13;;
8297;SDS011;4187;42.778;23.242;2023-07-13T12:11:57;8.55;;;5.00;;
8297;SDS011;4187;42.778;23.242;2023-07-13T12:14:26;6.30;;;4.88;;
8297;SDS011;4187;42.778;23.242;2023-07-13T12:16:53;6.93;;;4.80;;
8297;SDS011;4187;42.778;23.242;2023-07-13T12:19:23;9.43;;;5.07;;
8297;SDS011;4187;42.778;23.242;2023-07-13T12:21:53;12.77;;;5.30;;
8297;SDS011;4187;42.778;23.242;2023-07-13T12:24:22;6.10;;;5.20;;
8297;SDS011;4187;42.778;23.242;2023-07-13T12:26:51;7.55;;;4.95;;
8297;SDS011;4187;42.778;23.242;2023-07-13T12:29:20;7.60;;;5.30;;
8297;SDS011;4187;42.778;23.242;2023-07-13T12:31:48;7.90;;;4.70;;
8297;SDS011;4187;42.778;23.242;2023-07-13T12:34:18;9.02;;;4.88;;
8297;SDS011;4187;42.778;23.242;2023-07-13T12:36:46;5.18;;;4.68;;
8297;SDS011;4187;42.778;23.242;2023-07-13T12:39:15;6.30;;;4.95;;
8297;SDS011;4187;42.778;23.242;2023-07-13T12:41:45;6.40;;;4.63;;
8297;SDS011;4187;42.778;23.242;2023-07-13T12:44:12;5.75;;;4.32;;
8297;SDS011;4187;42.778;23.242;2023-07-13T12:46:51;7.88;;;4.82;;
8297;SDS011;4187;42.778;23.242;2023-07-13T12:49:25;7.18;;;4.32;;
8297;SDS011;4187;42.778;23.242;2023-07-13T12:51:58;8.30;;;5.20;;
8297;SDS011;4187;42.778;23.242;2023-07-13T12:54:26;7.10;;;4.65;;
8297;SDS011;4187;42.778;23.242;2023-07-13T12:56:58;8.80;;;4.85;;
8297;SDS011;4187;42.778;23.242;2023-07-13T12:59:29;7.75;;;4.50;;
8297;SDS011;4187;42.778;23.242;2023-07-13T13:02:04;9.50;;;5.00;;
8297;SDS011;4187;42.778;23.242;2023-07-13T13:04:49;8.18;;;5.05;;
8297;SDS011;4187;42.778;23.242;2023-07-13T13:07:16;7.97;;;5.00;;
8297;SDS011;4187;42.778;23.242;2023-07-13T13:09:45;5.55;;;4.93;;
8297;SDS011;4187;42.778;23.242;2023-07-13T13:12:12;6.60;;;4.90;;
8297;SDS011;4187;42.778;23.242;2023-07-13T13:14:40;7.63;;;4.80;;
8297;SDS011;4187;42.778;23.242;2023-07-13T13:17:14;7.50;;;5.10;;
8297;SDS011;4187;42.778;23.242;2023-07-13T13:19:45;7.75;;;4.63;;
8297;SDS011;4187;42.778;23.242;2023-07-13T13:22:13;7.25;;;4.90;;
8297;SDS011;4187;42.778;23.242;2023-07-13T13:24:40;6.32;;;5.32;;
8297;SDS011;4187;42.778;23.242;2023-07-13T13:27:09;11.07;;;5.18;;
8297;SDS011;4187;42.778;23.242;2023-07-13T13:29:42;6.97;;;5.13;;
8297;SDS011;4187;42.778;23.242;2023-07-13T13:32:09;6.40;;;4.80;;
8297;SDS011;4187;42.778;23.242;2023-07-13T13:34:41;9.15;;;4.88;;
8297;SDS011;4187;42.778;23.242;2023-07-13T13:37:16;9.38;;;4.90;;
8297;SDS011;4187;42.778;23.242;2023-07-13T13:39:45;9.30;;;5.20;;
8297;SDS011;4187;42.778;23.242;2023-07-13T13:42:13;7.53;;;4.85;;
8297;SDS011;4187;42.778;23.242;2023-07-13T13:44:40;8.55;;;5.15;;
8297;SDS011;4187;42.778;23.242;2023-07-13T13:47:11;7.15;;;4.68;;
8297;SDS011;4187;42.778;23.242;2023-07-13T13:49:53;8.35;;;4.88;;
8297;SDS011;4187;42.778;23.242;2023-07-13T13:52:20;10.10;;;5.07;;
8297;SDS011;4187;42.778;23.242;2023-07-13T13:54:47;7.72;;;4.88;;
8297;SDS011;4187;42.778;23.242;2023-07-13T13:57:13;6.85;;;4.63;;
8297;SDS011;4187;42.778;23.242;2023-07-13T13:59:41;8.45;;;4.70;;
8297;SDS011;4187;42.778;23.242;2023-07-13T14:02:11;6.05;;;4.45;;
8297;SDS011;4187;42.778;23.242;2023-07-13T14:04:52;5.60;;;4.90;;
8297;SDS011;4187;42.778;23.242;2023-07-13T14:07:22;10.10;;;4.93;;
8297;SDS011;4187;42.778;23.242;2023-07-13T14:09:49;11.55;;;5.05;;
8297;SDS011;4187;42.778;23.242;2023-07-13T14:12:17;8.18;;;4.55;;
8297;SDS011;4187;42.778;23.242;2023-07-13T14:14:44;6.18;;;4.13;;
8297;SDS011;4187;42.778;23.242;2023-07-13T14:17:20;7.93;;;5.07;;
8297;SDS011;4187;42.778;23.242;2023-07-13T14:19:52;5.47;;;4.35;;
8297;SDS011;4187;42.778;23.242;2023-07-13T14:22:22;8.13;;;4.88;;
8297;SDS011;4187;42.778;23.242;2023-07-13T14:24:51;9.77;;;4.93;;
8297;SDS011;4187;42.778;23.242;2023-07-13T14:27:18;6.47;;;4.70;;
8297;SDS011;4187;42.778;23.242;2023-07-13T14:29:45;5.65;;;4.75;;
8297;SDS011;4187;42.778;23.242;2023-07-13T14:32:12;9.10;;;4.80;;
8297;SDS011;4187;42.778;23.242;2023-07-13T14:34:40;9.25;;;4.30;;
8297;SDS011;4187;42.778;23.242;2023-07-13T14:37:11;6.68;;;5.05;;
8297;SDS011;4187;42.778;23.242;2023-07-13T14:39:39;13.30;;;6.28;;
8297;SDS011;4187;42.778;23.242;2023-07-13T14:42:08;11.25;;;5.90;;
8297;SDS011;4187;42.778;23.242;2023-07-13T14:44:37;9.60;;;5.43;;
8297;SDS011;4187;42.778;23.242;2023-07-13T14:47:04;7.18;;;4.63;;
8297;SDS011;4187;42.778;23.242;2023-07-13T14:49:33;9.82;;;5.05;;
8297;SDS011;4187;42.778;23.242;2023-07-13T14:52:08;8.07;;;4.97;;
8297;SDS011;4187;42.778;23.242;2023-07-13T14:54:39;5.80;;;4.47;;
8297;SDS011;4187;42.778;23.242;2023-07-13T14:57:09;7.72;;;5.63;;
8297;SDS011;4187;42.778;23.242;2023-07-13T14:59:36;6.72;;;5.10;;
8297;SDS011;4187;42.778;23.242;2023-07-13T15:02:08;8.95;;;5.60;;
8297;SDS011;4187;42.778;23.242;2023-07-13T15:04:41;7.35;;;5.03;;
8297;SDS011;4187;42.778;23.242;2023-07-13T15:07:10;7.55;;;5.05;;
8297;SDS011;4187;42.778;23.242;2023-07-13T15:09:38;7.65;;;5.22;;
8297;SDS011;4187;42.778;23.242;2023-07-13T15:12:06;12.15;;;5.47;;
8297;SDS011;4187;42.778;23.242;2023-07-13T15:14:33;9.98;;;5.15;;